createdAt,value
2023-04-19T00:00:27.502Z,14.07
2023-04-19T00:01:59.732Z,15.07
2023-04-19T00:03:32.265Z,14.57
2023-04-19T00:05:05.467Z,14.95
2023-04-19T00:06:38.522Z,16.42
2023-04-19T00:08:10.701Z,14.27
2023-04-19T00:09:42.805Z,20.40
2023-04-19T00:11:14.874Z,15.48
2023-04-19T00:12:46.989Z,16.25
2023-04-19T00:14:19.060Z,16.23
2023-04-19T00:15:51.413Z,17.08
2023-04-19T00:17:23.559Z,16.55
2023-04-19T00:18:55.824Z,16.25
2023-04-19T00:20:28.048Z,15.93
2023-04-19T00:22:00.102Z,16.85
2023-04-19T00:23:32.181Z,16.48
2023-04-19T00:25:04.425Z,16.33
2023-04-19T00:26:36.691Z,15.73
2023-04-19T00:28:08.766Z,16.60
2023-04-19T00:29:40.969Z,19.42
2023-04-19T00:31:13.170Z,16.63
2023-04-19T00:32:45.379Z,15.85
2023-04-19T00:34:17.562Z,15.18
2023-04-19T00:35:49.725Z,16.08
2023-04-19T00:37:21.985Z,16.13
2023-04-19T00:38:54.214Z,14.98
2023-04-19T00:40:26.484Z,16.35
2023-04-19T00:41:58.538Z,16.38
2023-04-19T00:43:30.673Z,16.45
2023-04-19T00:45:02.820Z,17.70
2023-04-19T00:46:37.121Z,15.13
2023-04-19T00:48:09.413Z,20.13
2023-04-19T00:49:41.712Z,16.70
2023-04-19T00:51:14.153Z,16.05
2023-04-19T00:52:47.040Z,19.25
2023-04-19T00:54:20.071Z,16.73
2023-04-19T00:55:52.306Z,17.80
2023-04-19T00:57:25.615Z,17.27
2023-04-19T00:58:57.722Z,17.10
2023-04-19T01:00:29.837Z,16.17
2023-04-19T01:02:02.522Z,18.13
2023-04-19T01:03:35.429Z,16.15
2023-04-19T01:05:08.345Z,15.52
2023-04-19T01:06:41.053Z,16.07
2023-04-19T01:08:13.127Z,18.98
2023-04-19T01:09:45.597Z,21.13
2023-04-19T01:11:17.692Z,15.37
2023-04-19T01:12:49.660Z,16.00
2023-04-19T01:14:21.710Z,16.20
2023-04-19T01:15:54.149Z,16.55
2023-04-19T01:17:27.843Z,16.27
2023-04-19T01:18:59.949Z,15.13
2023-04-19T01:20:31.981Z,16.25
2023-04-19T01:22:04.601Z,18.83
2023-04-19T01:23:37.176Z,14.95
2023-04-19T01:25:09.989Z,15.53
2023-04-19T01:26:42.031Z,15.40
2023-04-19T01:28:14.305Z,15.75
2023-04-19T01:29:46.576Z,16.45
2023-04-19T01:31:18.683Z,15.30
2023-04-19T01:32:50.981Z,19.25
2023-04-19T01:34:26.509Z,17.77
2023-04-19T01:35:58.626Z,18.48
2023-04-19T01:37:30.835Z,20.55
2023-04-19T01:39:02.969Z,18.80
2023-04-19T01:40:35.080Z,17.52
2023-04-19T01:42:07.218Z,14.32
2023-04-19T01:43:39.251Z,15.02
2023-04-19T01:45:11.859Z,13.77
2023-04-19T01:46:43.964Z,14.45
2023-04-19T01:48:16.055Z,14.80
2023-04-19T01:49:48.169Z,13.07
2023-04-19T01:51:22.197Z,14.02
2023-04-19T01:52:54.306Z,14.30
2023-04-19T01:54:27.384Z,15.52
2023-04-19T01:55:59.667Z,15.93
2023-04-19T01:57:31.710Z,14.45
2023-04-19T01:59:04.487Z,13.70
2023-04-19T02:00:36.604Z,13.10
2023-04-19T02:02:09.681Z,14.65
2023-04-19T02:03:42.235Z,13.55
2023-04-19T02:37:37.862Z,16.45
2023-04-19T02:39:10.071Z,15.52
2023-04-19T02:40:42.123Z,14.02
2023-04-19T02:42:14.258Z,15.52
2023-04-19T02:43:46.368Z,14.32
2023-04-19T02:45:18.592Z,15.40
2023-04-19T02:46:51.788Z,15.05
2023-04-19T02:48:23.772Z,13.10
2023-04-19T02:49:55.967Z,15.00
2023-04-19T02:51:28.095Z,14.30
2023-04-19T02:53:00.102Z,15.23
2023-04-19T02:54:33.574Z,16.05
2023-04-19T02:57:37.727Z,15.43
2023-04-19T02:59:09.876Z,13.48
2023-04-19T03:00:41.985Z,15.05
2023-04-19T03:02:14.166Z,15.75
2023-04-19T03:03:46.391Z,16.00
2023-04-19T03:05:18.636Z,16.30
2023-04-19T03:06:51.227Z,15.50
2023-04-19T03:08:23.331Z,16.88
2023-04-19T03:09:55.446Z,13.13
2023-04-19T03:11:27.569Z,15.05
2023-04-19T03:12:59.743Z,17.73
2023-04-19T03:14:34.200Z,19.02
2023-04-19T03:16:07.108Z,15.02
2023-04-19T03:17:39.267Z,17.88
2023-04-19T03:19:11.532Z,19.27
2023-04-19T03:20:43.917Z,17.15
2023-04-19T03:22:16.148Z,18.80
2023-04-19T03:23:48.319Z,17.25
2023-04-19T03:25:21.035Z,19.20
2023-04-19T03:26:53.198Z,16.50
2023-04-19T03:28:25.389Z,15.35
2023-04-19T03:29:57.706Z,15.52
2023-04-19T03:31:29.924Z,17.50
2023-04-19T03:33:02.297Z,18.13
2023-04-19T03:34:34.440Z,17.13
2023-04-19T03:36:07.471Z,20.88
2023-04-19T03:37:39.625Z,16.17
2023-04-19T03:39:11.826Z,17.45
2023-04-19T03:40:43.974Z,15.30
2023-04-19T03:42:16.202Z,16.05
2023-04-19T03:43:48.412Z,15.20
2023-04-19T03:45:20.809Z,16.08
2023-04-19T03:46:52.651Z,21.30
2023-04-19T03:48:24.762Z,15.13
2023-04-19T03:49:57.948Z,15.20
2023-04-19T03:51:30.101Z,13.85
2023-04-19T03:53:05.088Z,18.00
2023-04-19T03:54:37.283Z,15.27
2023-04-19T03:56:09.547Z,14.00
2023-04-19T03:57:41.635Z,14.45
2023-04-19T03:59:13.826Z,15.23
2023-04-19T04:00:46.107Z,16.65
2023-04-19T04:02:18.300Z,14.32
2023-04-19T04:03:50.817Z,14.82
2023-04-19T04:05:23.425Z,13.82
2023-04-19T04:06:56.307Z,14.55
2023-04-19T04:08:28.442Z,14.88
2023-04-19T04:10:00.688Z,13.05
2023-04-19T04:11:32.788Z,13.32
2023-04-19T04:13:04.949Z,14.60
2023-04-19T04:14:37.065Z,14.75
2023-04-19T04:16:09.337Z,14.10
2023-04-19T04:17:41.541Z,14.02
2023-04-19T04:19:13.925Z,15.52
2023-04-19T04:20:46.088Z,13.98
2023-04-19T04:22:18.208Z,14.55
2023-04-19T04:23:50.296Z,15.88
2023-04-19T04:25:23.229Z,17.05
2023-04-19T04:26:55.737Z,18.40
2023-04-19T04:28:28.765Z,15.85
2023-04-19T04:30:02.084Z,16.65
2023-04-19T04:31:36.361Z,17.63
2023-04-19T04:33:09.074Z,16.48
2023-04-19T04:34:43.158Z,15.50
2023-04-19T04:36:15.706Z,16.15
2023-04-19T04:37:49.182Z,17.33
2023-04-19T04:40:54.788Z,15.40
2023-04-19T04:44:23.418Z,17.73
2023-04-19T04:45:55.968Z,16.73
2023-04-19T04:47:32.775Z,18.13
2023-04-19T04:49:04.894Z,18.42
2023-04-19T04:50:37.286Z,18.08
2023-04-19T04:52:09.987Z,17.05
2023-04-19T04:53:42.078Z,18.55
2023-04-19T04:55:14.201Z,18.13
2023-04-19T04:56:46.370Z,17.27
2023-04-19T04:58:20.338Z,19.75
2023-04-19T04:59:52.700Z,19.70
2023-04-19T05:01:24.885Z,19.58
2023-04-19T05:02:57.135Z,21.17
2023-04-19T05:04:29.419Z,18.83
2023-04-19T05:06:01.589Z,20.27
2023-04-19T05:07:33.748Z,22.42
2023-04-19T05:09:05.800Z,21.77
2023-04-19T05:10:37.926Z,21.10
2023-04-19T05:12:10.032Z,27.25
2023-04-19T05:13:42.219Z,21.95
2023-04-19T05:15:14.347Z,21.83
2023-04-19T05:16:46.748Z,20.42
2023-04-19T05:18:19.011Z,30.10
2023-04-19T05:19:51.525Z,22.25
2023-04-19T05:21:23.737Z,22.87
2023-04-19T05:22:59.714Z,21.10
2023-04-19T05:24:31.890Z,23.83
2023-04-19T05:26:04.031Z,19.88
2023-04-19T05:27:36.133Z,20.70
2023-04-19T05:29:08.260Z,19.67
2023-04-19T05:30:40.549Z,20.67
2023-04-19T05:32:12.889Z,21.25
2023-04-19T05:33:44.924Z,18.88
2023-04-19T05:35:16.988Z,20.75
2023-04-19T05:36:49.240Z,19.70
2023-04-19T05:38:21.528Z,20.95
2023-04-19T05:39:53.700Z,22.40
2023-04-19T05:41:26.422Z,21.83
2023-04-19T05:42:58.488Z,21.23
2023-04-19T05:44:30.608Z,23.15
2023-04-19T05:46:02.853Z,23.30
2023-04-19T05:47:35.078Z,21.90
2023-04-19T05:49:07.263Z,21.15
2023-04-19T05:50:39.938Z,20.30
2023-04-19T05:52:12.351Z,21.25
2023-04-19T05:53:44.519Z,23.10
2023-04-19T05:56:48.618Z,21.10
2023-04-19T05:58:20.937Z,22.30
2023-04-19T05:59:53.154Z,87.65
2023-04-19T06:01:25.285Z,77.20
2023-04-19T06:02:57.575Z,42.03
2023-04-19T06:04:29.964Z,27.90
2023-04-19T06:06:02.506Z,21.75
2023-04-19T06:07:39.977Z,20.90
2023-04-19T06:09:15.940Z,19.70
2023-04-19T06:10:55.884Z,23.95
2023-04-19T06:12:32.166Z,18.17
2023-04-19T06:14:04.377Z,20.05
2023-04-19T06:15:36.674Z,18.50
2023-04-19T06:17:11.843Z,18.80
2023-04-19T06:18:43.922Z,22.95
2023-04-19T06:20:16.121Z,20.52
2023-04-19T06:21:48.284Z,24.85
2023-04-19T06:23:22.541Z,25.90
2023-04-19T06:24:54.624Z,23.27
2023-04-19T06:26:26.885Z,22.20
2023-04-19T06:27:59.088Z,22.15
2023-04-19T06:29:31.320Z,17.88
2023-04-19T06:31:03.522Z,20.48
2023-04-19T06:32:38.529Z,21.67
2023-04-19T06:34:11.518Z,23.80
2023-04-19T06:35:43.618Z,20.67
2023-04-19T06:37:15.752Z,18.67
2023-04-19T06:38:47.959Z,19.58
2023-04-19T06:40:20.145Z,21.33
2023-04-19T06:41:52.226Z,25.25
2023-04-19T06:43:25.056Z,25.95
2023-04-19T06:45:00.299Z,23.33
2023-04-19T06:46:32.596Z,69.43
2023-04-19T06:48:05.207Z,54.33
2023-04-19T06:49:37.354Z,26.70
2023-04-19T06:51:09.849Z,20.85
2023-04-19T06:52:42.678Z,19.93
2023-04-19T06:54:14.760Z,22.42
2023-04-19T06:55:47.169Z,24.15
2023-04-19T06:57:19.339Z,25.92
2023-04-19T06:58:51.527Z,22.98
2023-04-19T07:00:23.842Z,70.28
2023-04-19T07:01:57.965Z,35.95
2023-04-19T07:03:30.276Z,29.63
2023-04-19T07:05:02.672Z,26.95
2023-04-19T07:06:38.576Z,25.63
2023-04-19T07:08:10.705Z,22.92
2023-04-19T07:09:42.956Z,21.83
2023-04-19T07:11:15.067Z,22.17
2023-04-19T07:12:47.237Z,19.27
2023-04-19T07:14:22.256Z,22.17
2023-04-19T07:15:54.420Z,22.10
2023-04-19T07:17:26.683Z,23.02
2023-04-19T07:18:59.079Z,25.95
2023-04-19T07:20:32.064Z,24.90
2023-04-19T07:22:04.174Z,30.63
2023-04-19T07:23:36.390Z,24.00
2023-04-19T07:25:09.091Z,22.75
2023-04-19T07:26:41.128Z,21.77
2023-04-19T07:28:13.296Z,21.20
2023-04-19T07:29:45.449Z,21.48
2023-04-19T07:31:20.485Z,19.13
2023-04-19T07:32:54.063Z,20.73
2023-04-19T07:34:26.172Z,19.45
2023-04-19T07:35:58.355Z,19.02
2023-04-19T07:37:30.881Z,16.90
2023-04-19T07:39:03.532Z,20.33
2023-04-19T07:40:36.147Z,19.50
2023-04-19T07:42:08.302Z,21.00
2023-04-19T07:43:41.103Z,21.25
2023-04-19T07:45:13.391Z,21.83
2023-04-19T07:46:45.834Z,24.52
2023-04-19T07:48:17.974Z,21.60
2023-04-19T07:49:53.828Z,26.27
2023-04-19T07:51:26.600Z,24.33
2023-04-19T07:52:58.776Z,18.58
2023-04-19T07:54:31.767Z,16.85
2023-04-19T07:56:04.195Z,20.42
2023-04-19T07:57:36.433Z,18.40
2023-04-19T07:59:09.569Z,21.30
2023-04-19T08:00:41.894Z,21.80
2023-04-19T08:02:14.433Z,22.45
2023-04-19T08:03:47.567Z,26.60
2023-04-19T08:05:20.479Z,31.05
2023-04-19T08:06:53.459Z,23.73
2023-04-19T08:08:26.284Z,18.95
2023-04-19T08:09:58.507Z,21.10
2023-04-19T08:11:31.933Z,18.63
2023-04-19T08:13:06.296Z,22.05
2023-04-19T08:14:56.459Z,18.55
2023-04-19T08:17:14.152Z,21.40
2023-04-19T08:18:25.357Z,16.63
2023-04-19T08:19:57.447Z,20.88
2023-04-19T08:21:38.439Z,21.50
2023-04-19T08:24:58.016Z,21.23
2023-04-19T08:26:30.186Z,19.35
2023-04-19T08:28:02.437Z,19.15
2023-04-19T08:29:34.490Z,16.40
2023-04-19T08:31:08.138Z,27.73
2023-04-19T08:32:40.313Z,20.55
2023-04-19T08:34:12.524Z,20.90
2023-04-19T08:35:45.965Z,23.55
2023-04-19T08:39:04.242Z,19.08
2023-04-19T08:40:47.117Z,20.85
2023-04-19T08:42:33.089Z,24.05
2023-04-19T08:44:08.702Z,19.55
2023-04-19T08:45:40.849Z,21.90
2023-04-19T08:47:17.699Z,20.73
2023-04-19T08:49:00.145Z,20.15
2023-04-19T08:50:36.172Z,19.08
2023-04-19T08:52:14.350Z,18.02
2023-04-19T08:55:21.230Z,20.75
2023-04-19T08:56:54.876Z,23.95
2023-04-19T08:58:37.032Z,20.63
2023-04-19T09:00:19.529Z,19.63
2023-04-19T09:01:51.631Z,18.42
2023-04-19T09:03:24.300Z,20.40
2023-04-19T09:04:56.796Z,17.92
2023-04-19T09:06:29.300Z,17.98
2023-04-19T09:08:24.182Z,24.10
2023-04-19T09:10:08.279Z,20.73
2023-04-19T09:11:40.787Z,19.15
2023-04-19T09:13:14.177Z,20.60
2023-04-19T09:16:33.674Z,18.33
2023-04-19T09:18:08.307Z,22.13
2023-04-19T09:19:50.467Z,21.67
2023-04-19T09:21:32.393Z,18.92
2023-04-19T09:23:08.212Z,18.90
2023-04-19T09:26:23.477Z,21.23
2023-04-19T09:27:56.822Z,21.42
2023-04-19T09:29:28.916Z,25.60
2023-04-19T09:31:30.332Z,29.45
2023-04-19T09:33:06.412Z,23.27
2023-04-19T09:34:52.206Z,19.85
2023-04-19T09:36:32.387Z,19.63
2023-04-19T09:38:07.342Z,20.02
2023-04-19T09:39:39.461Z,18.30
2023-04-19T09:41:11.798Z,18.70
2023-04-19T09:44:58.777Z,19.30
2023-04-19T09:46:33.696Z,27.90
2023-04-19T09:48:10.390Z,19.50
2023-04-19T09:49:48.847Z,17.40
2023-04-19T09:51:22.318Z,20.63
2023-04-19T09:52:54.602Z,21.70
2023-04-19T09:54:32.869Z,20.25
2023-04-19T09:56:06.557Z,21.95
2023-04-19T09:57:38.670Z,21.02
2023-04-19T09:59:20.394Z,21.50
2023-04-19T10:01:02.878Z,19.42
2023-04-19T10:02:44.034Z,18.63
2023-04-19T10:04:33.326Z,20.05
2023-04-19T10:07:57.730Z,21.88
2023-04-19T10:09:34.095Z,19.98
2023-04-19T10:11:08.114Z,20.75
2023-04-19T10:12:59.157Z,17.48
2023-04-19T10:14:36.591Z,16.77
2023-04-19T10:16:18.792Z,19.95
2023-04-19T10:17:52.091Z,20.48
2023-04-19T10:19:24.849Z,24.65
2023-04-19T10:21:03.843Z,17.42
2023-04-19T10:22:38.071Z,17.42
2023-04-19T10:24:10.898Z,21.40
2023-04-19T10:25:48.036Z,17.95
2023-04-19T10:27:25.063Z,16.92
2023-04-19T10:28:57.821Z,25.08
2023-04-19T10:30:29.976Z,19.55
2023-04-19T10:32:06.007Z,19.45
2023-04-19T10:33:38.865Z,21.20
2023-04-19T10:35:17.678Z,17.65
2023-04-19T10:36:49.790Z,21.67
2023-04-19T10:38:22.124Z,19.98
2023-04-19T10:39:54.328Z,19.67
2023-04-19T10:41:59.754Z,16.85
2023-04-19T10:43:35.792Z,19.35
2023-04-19T10:45:32.908Z,16.73
2023-04-19T10:47:06.460Z,17.88
2023-04-19T10:48:41.185Z,18.35
2023-04-19T10:50:13.387Z,15.98
2023-04-19T10:51:55.612Z,19.27
2023-04-19T10:53:50.057Z,13.98
2023-04-19T10:55:22.331Z,14.90
2023-04-19T10:57:03.142Z,14.25
2023-04-19T10:59:08.610Z,13.50
2023-04-19T11:00:41.318Z,20.77
2023-04-19T11:02:22.636Z,15.48
2023-04-19T11:03:55.415Z,14.20
2023-04-19T11:05:28.022Z,16.75
2023-04-19T11:07:09.749Z,14.50
2023-04-19T11:08:45.004Z,12.95
2023-04-19T11:10:29.399Z,14.75
2023-04-19T11:12:08.841Z,17.98
2023-04-19T11:13:44.768Z,19.15
2023-04-19T11:15:23.383Z,24.52
2023-04-19T11:16:55.684Z,18.65
2023-04-19T11:18:30.982Z,18.93
2023-04-19T11:20:10.283Z,17.70
2023-04-19T11:21:42.558Z,16.13
2023-04-19T11:23:18.531Z,13.13
2023-04-19T11:24:50.672Z,13.52
2023-04-19T11:26:24.244Z,14.43
2023-04-19T11:27:56.506Z,12.07
2023-04-19T11:29:28.645Z,15.27
2023-04-19T11:31:00.991Z,14.80
2023-04-19T11:32:33.760Z,14.07
2023-04-19T11:34:06.224Z,15.02
2023-04-19T11:35:38.528Z,16.17
2023-04-19T11:37:12.008Z,17.10
2023-04-19T11:38:48.658Z,13.68
2023-04-19T11:40:22.239Z,17.67
2023-04-19T11:41:54.354Z,12.95
2023-04-19T11:43:36.056Z,13.18
2023-04-19T11:45:18.675Z,15.88
2023-04-19T11:47:08.184Z,12.85
2023-04-19T11:48:51.645Z,13.80
2023-04-19T11:50:35.690Z,15.18
2023-04-19T11:52:08.007Z,13.35
2023-04-19T11:53:40.666Z,14.43
2023-04-19T11:55:19.749Z,20.35
2023-04-19T11:57:09.938Z,12.48
2023-04-19T11:58:48.567Z,13.40
2023-04-19T12:00:28.894Z,12.57
2023-04-19T12:02:12.033Z,12.35
2023-04-19T12:03:54.604Z,12.30
2023-04-19T12:05:27.434Z,12.15
2023-04-19T12:07:01.376Z,13.77
2023-04-19T12:08:38.433Z,13.07
2023-04-19T12:10:12.729Z,12.32
2023-04-19T12:11:46.780Z,15.43
2023-04-19T12:14:54.861Z,15.70
2023-04-19T12:16:29.849Z,11.48
2023-04-19T12:18:03.424Z,12.48
2023-04-19T12:19:37.565Z,13.63
2023-04-19T12:21:09.717Z,11.68
2023-04-19T12:22:44.305Z,14.00
2023-04-19T12:24:17.163Z,12.45
2023-04-19T12:25:50.373Z,12.10
2023-04-19T12:27:22.609Z,13.07
2023-04-19T12:28:58.839Z,13.07
2023-04-19T12:30:31.099Z,12.65
2023-04-19T12:32:03.903Z,12.30
2023-04-19T12:33:36.014Z,11.30
2023-04-19T12:35:08.527Z,12.77
2023-04-19T12:36:40.696Z,11.52
2023-04-19T12:38:12.977Z,12.60
2023-04-19T12:39:45.053Z,13.40
2023-04-19T12:41:17.216Z,12.70
2023-04-19T12:42:49.956Z,11.55
2023-04-19T12:44:22.120Z,11.85
2023-04-19T12:45:54.616Z,12.82
2023-04-19T12:47:26.762Z,12.10
2023-04-19T12:48:58.958Z,13.02
2023-04-19T12:50:31.155Z,13.77
2023-04-19T12:52:03.256Z,10.68
2023-04-19T12:53:35.343Z,12.35
2023-04-19T12:55:08.031Z,11.02
2023-04-19T12:56:40.217Z,10.45
2023-04-19T12:58:12.503Z,17.00
2023-04-19T12:59:44.897Z,14.87
2023-04-19T13:01:17.601Z,11.02
2023-04-19T13:02:49.984Z,12.15
2023-04-19T13:04:22.556Z,13.43
2023-04-19T13:05:55.196Z,13.15
2023-04-19T13:07:28.946Z,11.95
2023-04-19T13:09:01.763Z,11.68
2023-04-19T13:10:33.991Z,11.43
2023-04-19T13:13:38.040Z,12.90
2023-04-19T13:15:10.621Z,11.65
2023-04-19T13:16:42.852Z,14.32
2023-04-19T13:18:15.429Z,13.48
2023-04-19T13:19:47.932Z,15.85
2023-04-19T13:21:20.107Z,12.07
2023-04-19T13:22:52.229Z,13.25
2023-04-19T13:24:24.570Z,11.13
2023-04-19T13:25:56.684Z,12.40
2023-04-19T13:27:28.799Z,13.70
2023-04-19T13:29:01.113Z,11.30
2023-04-19T13:30:33.419Z,14.07
2023-04-19T13:32:12.720Z,12.38
2023-04-19T13:33:47.331Z,12.57
2023-04-19T13:35:19.406Z,14.95
2023-04-19T13:36:51.597Z,13.45
2023-04-19T13:38:24.478Z,14.25
2023-04-19T13:40:07.018Z,15.68
2023-04-19T13:41:39.470Z,16.10
2023-04-19T13:43:11.630Z,15.10
2023-04-19T13:44:43.640Z,13.95
2023-04-19T13:46:15.965Z,18.33
2023-04-19T13:47:48.092Z,17.42
2023-04-19T13:49:20.194Z,16.35
2023-04-19T13:50:53.007Z,14.60
2023-04-19T13:52:25.125Z,16.77
2023-04-19T13:53:57.215Z,15.15
2023-04-19T13:55:29.386Z,17.10
2023-04-19T13:57:02.098Z,17.98
2023-04-19T13:58:34.258Z,15.50
2023-04-19T14:00:07.159Z,14.77
2023-04-19T14:01:39.423Z,12.93
2023-04-19T14:03:12.167Z,11.57
2023-04-19T14:04:44.438Z,12.70
2023-04-19T14:06:17.475Z,10.65
2023-04-19T14:07:49.716Z,14.02
2023-04-19T14:09:22.049Z,11.45
2023-04-19T14:12:38.962Z,11.70
2023-04-19T14:14:11.186Z,12.35
2023-04-19T14:15:47.459Z,13.50
2023-04-19T14:17:19.688Z,11.63
2023-04-19T14:18:52.445Z,11.35
2023-04-19T14:20:24.550Z,11.35
2023-04-19T14:21:56.998Z,10.25
2023-04-19T14:23:29.196Z,10.47
2023-04-19T14:25:01.287Z,12.02
2023-04-19T14:26:34.168Z,9.50
2023-04-19T14:28:06.299Z,10.70
2023-04-19T14:29:38.473Z,11.90
2023-04-19T14:31:10.829Z,10.60
2023-04-19T14:32:43.122Z,14.90
2023-04-19T14:34:15.428Z,9.52
2023-04-19T14:35:47.756Z,10.95
2023-04-19T14:37:21.569Z,10.63
2023-04-19T14:38:53.753Z,12.07
2023-04-19T14:40:26.007Z,12.07
2023-04-19T14:41:58.276Z,13.15
2023-04-19T14:43:31.164Z,11.75
2023-04-19T14:45:03.425Z,10.68
2023-04-19T14:46:35.563Z,10.90
2023-04-19T14:48:07.744Z,10.18
2023-04-19T14:49:42.070Z,8.68
2023-04-19T14:51:14.188Z,8.85
2023-04-19T14:52:46.290Z,13.15
2023-04-19T14:54:18.398Z,8.82
2023-04-19T14:55:50.520Z,8.63
2023-04-19T14:57:22.755Z,8.98
2023-04-19T14:58:55.008Z,9.15
2023-04-19T15:00:28.114Z,9.15
2023-04-19T15:02:00.261Z,10.95
2023-04-19T15:03:32.650Z,8.50
2023-04-19T15:05:05.494Z,10.18
2023-04-19T15:06:38.011Z,9.27
2023-04-19T15:08:23.418Z,8.20
2023-04-19T15:10:01.690Z,8.90
2023-04-19T15:11:33.825Z,11.35
2023-04-19T15:13:06.211Z,8.68
2023-04-19T15:14:39.213Z,8.40
2023-04-19T15:16:11.479Z,14.57
2023-04-19T15:17:43.872Z,15.30
2023-04-19T15:19:16.358Z,33.97
2023-04-19T15:20:49.007Z,26.73
2023-04-19T15:22:21.110Z,107.72
2023-04-19T15:23:56.173Z,37.15
2023-04-19T15:25:28.396Z,28.20
2023-04-19T15:27:00.567Z,51.20
2023-04-19T15:28:35.708Z,23.05
2023-04-19T15:30:08.445Z,47.45
2023-04-19T15:31:40.875Z,55.35
2023-04-19T15:33:13.092Z,11.95
2023-04-19T15:34:45.291Z,16.45
2023-04-19T15:36:17.511Z,16.30
2023-04-19T15:37:49.731Z,29.23
2023-04-19T15:39:21.834Z,17.38
2023-04-19T15:40:58.083Z,46.72
2023-04-19T15:42:30.185Z,33.05
2023-04-19T15:44:02.386Z,12.52
2023-04-19T15:45:34.499Z,20.88
2023-04-19T15:47:06.544Z,15.50
2023-04-19T15:48:38.611Z,40.38
2023-04-19T15:51:47.548Z,11.32
2023-04-19T15:53:19.679Z,8.65
2023-04-19T15:54:52.350Z,7.68
2023-04-19T15:56:24.498Z,6.75
2023-04-19T15:57:56.928Z,7.15
2023-04-19T15:59:29.388Z,7.83
2023-04-19T16:01:01.659Z,7.03
2023-04-19T16:02:34.445Z,7.65
2023-04-19T16:04:06.947Z,8.15
2023-04-19T16:05:39.509Z,9.32
2023-04-19T16:07:11.539Z,8.25
2023-04-19T16:08:43.946Z,7.85
2023-04-19T16:10:16.160Z,8.03
2023-04-19T16:11:48.286Z,8.43
2023-04-19T16:13:20.520Z,29.17
2023-04-19T16:14:52.869Z,9.43
2023-04-19T16:16:27.115Z,30.83
2023-04-19T16:17:59.345Z,18.23
2023-04-19T16:19:31.489Z,9.13
2023-04-19T16:21:04.336Z,8.55
2023-04-19T16:22:37.030Z,7.32
2023-04-19T16:24:09.171Z,6.60
2023-04-19T16:25:44.183Z,6.47
2023-04-19T16:27:16.316Z,8.73
2023-04-19T16:28:48.939Z,7.70
2023-04-19T16:30:22.635Z,6.30
2023-04-19T16:31:54.852Z,13.48
2023-04-19T16:33:27.122Z,7.07
2023-04-19T16:34:59.344Z,8.88
2023-04-19T16:36:32.384Z,10.38
2023-04-19T16:38:07.446Z,10.45
2023-04-19T16:39:39.606Z,9.68
2023-04-19T16:41:12.261Z,15.10
2023-04-19T16:42:44.423Z,9.45
2023-04-19T16:44:16.714Z,7.55
2023-04-19T16:45:49.127Z,9.85
2023-04-19T16:47:22.264Z,7.90
2023-04-19T16:48:54.473Z,12.80
2023-04-19T16:50:26.602Z,11.63
2023-04-19T16:51:58.859Z,15.85
2023-04-19T16:53:31.835Z,27.08
2023-04-19T16:55:04.813Z,36.35
2023-04-19T16:56:36.999Z,33.60
2023-04-19T16:58:09.178Z,18.00
2023-04-19T16:59:41.433Z,20.65
2023-04-19T17:01:16.853Z,14.13
2023-04-19T17:02:49.212Z,11.77
2023-04-19T17:04:21.705Z,9.83
2023-04-19T17:05:54.016Z,8.63
2023-04-19T17:07:26.239Z,8.70
2023-04-19T17:09:02.441Z,10.40
2023-04-19T17:10:34.565Z,10.68
2023-04-19T17:12:07.493Z,12.70
2023-04-19T17:13:40.299Z,9.23
2023-04-19T17:15:12.496Z,14.88
2023-04-19T17:16:44.621Z,11.63
2023-04-19T17:18:16.764Z,10.05
2023-04-19T17:19:48.897Z,9.25
2023-04-19T17:21:20.989Z,10.93
2023-04-19T17:22:53.112Z,10.15
2023-04-19T17:24:25.247Z,11.48
2023-04-19T17:25:57.423Z,10.35
2023-04-19T17:27:29.567Z,9.48
2023-04-19T17:29:02.549Z,8.88
2023-04-19T17:30:34.805Z,8.23
2023-04-19T17:32:08.088Z,10.50
2023-04-19T17:33:40.223Z,10.80
2023-04-19T17:35:14.978Z,11.38
2023-04-19T17:36:47.113Z,8.85
2023-04-19T17:38:19.248Z,9.02
2023-04-19T17:39:51.563Z,10.43
2023-04-19T17:41:23.647Z,7.18
2023-04-19T17:42:55.996Z,8.25
2023-04-19T17:44:28.157Z,13.20
2023-04-19T17:46:00.339Z,7.28
2023-04-19T17:47:32.654Z,8.10
2023-04-19T17:49:04.847Z,8.40
2023-04-19T17:50:37.021Z,7.60
2023-04-19T17:52:09.150Z,8.45
2023-04-19T17:53:41.400Z,9.60
2023-04-19T17:55:14.850Z,7.32
2023-04-19T17:58:20.457Z,7.72
2023-04-19T17:59:52.727Z,10.05
2023-04-19T18:01:24.960Z,10.10
2023-04-19T18:02:57.267Z,34.55
2023-04-19T18:04:29.751Z,21.02
2023-04-19T18:06:02.046Z,22.90
2023-04-19T18:07:36.827Z,26.55
2023-04-19T18:09:09.029Z,20.30
2023-04-19T18:10:41.094Z,15.88
2023-04-19T18:12:13.271Z,11.75
2023-04-19T18:13:45.622Z,11.88
2023-04-19T18:15:17.916Z,13.38
2023-04-19T18:16:50.190Z,22.77
2023-04-19T18:18:22.350Z,20.45
2023-04-19T18:19:54.679Z,12.32
2023-04-19T18:21:27.568Z,12.57
2023-04-19T18:23:02.132Z,9.43
2023-04-19T18:24:34.259Z,13.00
2023-04-19T18:26:06.638Z,12.98
2023-04-19T18:27:38.751Z,11.48
2023-04-19T18:29:12.736Z,12.65
2023-04-19T18:30:44.895Z,16.27
2023-04-19T18:32:17.162Z,12.98
2023-04-19T18:33:49.337Z,12.02
2023-04-19T18:35:22.363Z,11.65
2023-04-19T18:37:02.505Z,13.23
2023-04-19T18:38:34.606Z,15.85
2023-04-19T18:40:07.738Z,13.82
2023-04-19T18:41:40.040Z,13.60
2023-04-19T18:43:12.257Z,12.10
2023-04-19T18:44:53.749Z,13.82
2023-04-19T18:46:26.919Z,13.23
2023-04-19T18:48:01.514Z,11.25
2023-04-19T18:49:33.858Z,12.57
2023-04-19T18:51:09.776Z,10.68
2023-04-19T18:52:42.097Z,12.15
2023-04-19T18:54:14.296Z,11.80
2023-04-19T18:55:47.995Z,11.95
2023-04-19T18:57:23.578Z,13.60
2023-04-19T18:59:00.299Z,14.50
2023-04-19T19:00:32.474Z,11.68
2023-04-19T19:02:04.659Z,17.67
2023-04-19T19:05:13.750Z,26.65
2023-04-19T19:06:46.366Z,15.45
2023-04-19T19:08:18.718Z,15.63
2023-04-19T19:09:55.732Z,12.27
2023-04-19T19:11:51.957Z,9.57
2023-04-19T19:13:20.856Z,11.38
2023-04-19T19:14:53.388Z,11.68
2023-04-19T19:16:25.758Z,10.33
2023-04-19T19:17:58.207Z,11.50
2023-04-19T19:19:30.428Z,12.50
2023-04-19T19:21:02.610Z,12.02
2023-04-19T19:22:35.039Z,11.45
2023-04-19T19:24:07.258Z,11.15
2023-04-19T19:25:39.452Z,16.75
2023-04-19T19:27:11.742Z,16.73
2023-04-19T19:28:43.848Z,12.48
2023-04-19T19:30:16.217Z,15.82
2023-04-19T19:31:48.369Z,16.38
2023-04-19T19:33:21.729Z,15.55
2023-04-19T19:35:00.555Z,12.50
2023-04-19T19:36:33.789Z,12.32
2023-04-19T19:38:05.950Z,9.93
2023-04-19T19:39:38.060Z,11.20
2023-04-19T19:42:48.965Z,11.73
2023-04-19T19:44:21.092Z,9.75
2023-04-19T19:45:53.280Z,9.63
2023-04-19T19:47:27.963Z,11.27
2023-04-19T19:49:00.429Z,9.95
2023-04-19T19:52:07.729Z,10.10
2023-04-19T19:53:39.951Z,12.18
2023-04-19T19:55:14.047Z,9.88
2023-04-19T19:57:18.948Z,10.00
2023-04-19T19:58:49.728Z,9.68
2023-04-19T20:00:43.930Z,9.85
2023-04-19T20:02:16.354Z,11.38
2023-04-19T20:03:51.089Z,10.50
2023-04-19T20:05:23.946Z,10.68
2023-04-19T20:07:25.874Z,12.15
2023-04-19T20:08:50.044Z,11.55
2023-04-19T20:10:22.299Z,11.13
2023-04-19T20:11:54.431Z,10.80
2023-04-19T20:13:27.292Z,13.07
2023-04-19T20:14:59.448Z,13.30
2023-04-19T20:16:31.616Z,12.45
2023-04-19T20:18:04.730Z,11.57
2023-04-19T20:19:37.856Z,11.57
2023-04-19T20:21:10.095Z,12.38
2023-04-19T20:22:42.287Z,13.80
2023-04-19T20:24:14.496Z,13.00
2023-04-19T20:25:46.964Z,13.07
2023-04-19T20:27:19.708Z,12.90
2023-04-19T20:28:52.993Z,12.98
2023-04-19T20:30:25.286Z,10.35
2023-04-19T20:31:57.758Z,14.07
2023-04-19T20:33:29.858Z,13.17
2023-04-19T20:35:08.634Z,12.52
2023-04-19T20:36:40.780Z,11.57
2023-04-19T20:38:13.202Z,12.40
2023-04-19T20:39:45.508Z,13.35
2023-04-19T20:41:18.585Z,16.17
2023-04-19T20:42:50.753Z,13.90
2023-04-19T20:44:23.286Z,10.68
2023-04-19T20:45:55.534Z,11.25
2023-04-19T20:47:27.791Z,10.30
2023-04-19T20:48:59.971Z,10.35
2023-04-19T20:50:32.192Z,11.10
2023-04-19T20:52:04.405Z,11.82
2023-04-19T20:53:36.516Z,10.88
2023-04-19T20:55:09.201Z,8.88
2023-04-19T20:56:41.555Z,10.07
2023-04-19T20:58:13.700Z,9.65
2023-04-19T20:59:47.490Z,10.40
2023-04-19T21:01:21.175Z,9.18
2023-04-19T21:02:54.818Z,10.25
2023-04-19T21:04:27.351Z,10.18
2023-04-19T21:05:59.520Z,11.57
2023-04-19T21:07:31.669Z,9.32
2023-04-19T21:09:04.657Z,8.63
2023-04-19T21:10:36.828Z,11.02
2023-04-19T21:12:08.862Z,9.57
2023-04-19T21:13:41.267Z,10.30
2023-04-19T21:15:13.407Z,9.77